Time;durP1;ratioP1;P1;durP2;ratioP2;P2;SDS_P1;SDS_P2;PMS_P1;PMS_P2;Temp;Humidity;BMP_temperature;BMP_pressure;BME280_temperature;BME280_humidity;BME280_pressure;Samples;Min_cycle;Max_cycle;Signal;HPM_P1;HPM_P2
2023/10/31 00:01:28;;;;;;;10.52;5.30;;;;;;;18.77;49.22;98615.59;4463702;32;33496;-69
2023/10/31 00:03:56;;;;;;;7.57;3.90;;;;;;;18.57;49.30;98616.22;4467021;31;33706;-70
2023/10/31 00:06:23;;;;;;;9.07;5.03;;;;;;;18.75;48.88;98615.81;4464665;32;33342;-70
2023/10/31 00:08:51;;;;;;;9.98;4.18;;;;;;;18.95;48.37;98618.69;4464585;32;33827;-70
2023/10/31 00:11:19;;;;;;;8.43;5.10;;;;;;;19.04;48.15;98612.09;4465817;32;33345;-69
2023/10/31 00:13:46;;;;;;;8.30;5.30;;;;;;;18.31;49.47;98616.78;4467006;32;33923;-70
2023/10/31 00:16:14;;;;;;;7.28;4.22;;;;;;;18.44;49.17;98618.78;4457877;32;34064;-70
2023/10/31 00:18:42;;;;;;;16.00;5.95;;;;;;;18.61;49.05;98616.66;4458684;32;34066;-70
2023/10/31 00:21:09;;;;;;;10.80;4.55;;;;;;;18.55;49.62;98610.12;4464756;32;34699;-69
2023/10/31 00:23:47;;;;;;;7.82;4.30;;;;;;;18.70;49.60;98601.94;4465213;32;33418;-70
2023/10/31 00:26:15;;;;;;;8.52;4.32;;;;;;;18.55;50.25;98602.00;4459285;32;33821;-70
2023/10/31 00:28:45;;;;;;;6.05;3.70;;;;;;;18.25;51.45;98598.59;4460537;32;35205;-70
2023/10/31 00:31:14;;;;;;;6.72;3.62;;;;;;;18.37;51.21;98591.63;4462438;32;33653;-70
2023/10/31 00:33:41;;;;;;;8.75;4.30;;;;;;;18.50;50.99;98587.38;4458004;32;33278;-70
2023/10/31 00:36:09;;;;;;;8.63;3.92;;;;;;;18.52;50.89;98583.47;4467459;32;33605;-70
2023/10/31 00:38:37;;;;;;;14.55;3.80;;;;;;;18.55;50.83;98574.91;4464071;32;34960;-70
2023/10/31 00:41:05;;;;;;;10.95;5.07;;;;;;;18.16;51.33;98578.91;4458249;32;33974;-70
2023/10/31 00:43:32;;;;;;;8.55;4.22;;;;;;;18.31;50.27;98581.56;4460572;32;33068;-70
2023/10/31 00:46:02;;;;;;;8.63;4.10;;;;;;;18.55;49.66;98565.94;4466890;32;33345;-70
2023/10/31 00:48:35;;;;;;;9.90;4.22;;;;;;;18.55;49.67;98555.09;4468033;32;33912;-70
2023/10/31 00:51:04;;;;;;;13.77;5.10;;;;;;;17.50;52.67;98561.84;4461888;32;33363;-69
2023/10/31 00:53:32;;;;;;;9.50;4.78;;;;;;;17.90;51.92;98562.34;4468401;32;33044;-70
2023/10/31 00:56:01;;;;;;;14.50;5.03;;;;;;;17.95;51.59;98550.97;4467118;32;33815;-69
2023/10/31 00:58:30;;;;;;;6.53;3.62;;;;;;;17.50;52.36;98542.06;4465260;32;33670;-70
2023/10/31 01:00:58;;;;;;;9.15;4.28;;;;;;;18.03;51.19;98545.44;4460427;32;33732;-69
2023/10/31 01:03:25;;;;;;;5.65;3.60;;;;;;;18.25;50.54;98540.88;4464441;32;33908;-70
2023/10/31 01:05:53;;;;;;;6.20;3.42;;;;;;;17.91;51.02;98536.97;4465895;32;34711;-70
2023/10/31 01:08:21;;;;;;;8.35;4.53;;;;;;;18.14;50.56;98529.53;4463613;32;34212;-69
2023/10/31 01:10:48;;;;;;;9.88;6.18;;;;;;;18.11;50.35;98534.50;4464396;32;33475;-69
2023/10/31 01:13:16;;;;;;;12.10;4.72;;;;;;;18.03;50.57;98531.91;4468263;32;33162;-70
2023/10/31 01:15:44;;;;;;;8.05;4.25;;;;;;;17.90;50.42;98532.59;4468064;31;32893;-69
2023/10/31 01:18:11;;;;;;;11.55;5.12;;;;;;;18.13;49.96;98530.53;4469346;32;34901;-69
2023/10/31 01:20:39;;;;;;;11.18;4.70;;;;;;;17.14;50.63;98508.53;4464866;32;33752;-69
2023/10/31 01:23:07;;;;;;;11.15;4.72;;;;;;;17.65;49.69;98507.69;4468531;32;32954;-69
2023/10/31 01:25:34;;;;;;;13.02;5.18;;;;;;;17.67;49.85;98516.47;4466931;32;34634;-69
2023/10/31 01:28:02;;;;;;;11.15;5.43;;;;;;;17.87;50.06;98508.59;4467679;32;33941;-69
2023/10/31 01:30:30;;;;;;;8.45;4.60;;;;;;;17.41;51.81;98511.56;4463339;32;35009;-69
2023/10/31 01:32:57;;;;;;;8.15;4.95;;;;;;;17.49;52.19;98505.22;4465538;32;33369;-69
2023/10/31 01:35:25;;;;;;;10.43;5.07;;;;;;;17.50;52.38;98496.09;4466521;32;35135;-69
2023/10/31 01:37:53;;;;;;;11.00;5.53;;;;;;;18.00;51.21;98502.50;4463638;32;34178;-69
2023/10/31 01:40:21;;;;;;;17.48;6.50;;;;;;;17.85;51.66;98494.44;4463622;32;35211;-69
2023/10/31 01:42:48;;;;;;;8.88;5.87;;;;;;;17.75;51.97;98500.09;4468889;32;33336;-69
2023/10/31 01:45:16;;;;;;;11.75;6.07;;;;;;;17.64;52.31;98484.37;4469652;32;33538;-69
2023/10/31 01:47:45;;;;;;;10.40;4.43;;;;;;;17.43;52.67;98488.72;4467032;32;34279;-69
2023/10/31 01:50:13;;;;;;;10.93;5.28;;;;;;;18.00;51.15;98481.66;4467862;32;33876;-68
2023/10/31 01:52:41;;;;;;;7.07;4.28;;;;;;;17.73;51.70;98482.41;4468719;32;34235;-68
2023/10/31 01:55:09;;;;;;;8.32;4.82;;;;;;;17.78;51.38;98474.56;4467409;32;33796;-69
2023/10/31 01:57:36;;;;;;;5.62;3.72;;;;;;;17.73;51.60;98477.81;4467313;32;35038;-69
2023/10/31 02:00:05;;;;;;;8.13;4.03;;;;;;;18.12;50.80;98476.59;4467841;32;33810;-69
2023/10/31 02:02:41;;;;;;;12.40;5.97;;;;;;;17.99;50.99;98476.47;4468014;32;33348;-69
2023/10/31 02:05:10;;;;;;;11.73;5.55;;;;;;;17.60;52.00;98477.69;4468675;32;34889;-69
2023/10/31 02:07:37;;;;;;;16.33;6.22;;;;;;;17.62;51.85;98464.78;4468490;32;35164;-69
2023/10/31 02:10:05;;;;;;;15.55;5.32;;;;;;;17.70;51.59;98473.62;4466615;32;34783;-69
2023/10/31 02:12:34;;;;;;;12.45;4.45;;;;;;;17.74;51.62;98462.44;4457616;32;33137;-69
2023/10/31 02:15:03;;;;;;;10.65;5.50;;;;;;;17.91;50.94;98456.63;4455641;32;34742;-69
2023/10/31 02:17:31;;;;;;;5.25;3.65;;;;;;;17.57;51.93;98448.31;4469025;32;34093;-69
2023/10/31 02:19:59;;;;;;;4.82;3.12;;;;;;;17.60;52.06;98445.22;4465530;32;33662;-69
2023/10/31 02:22:27;;;;;;;13.13;4.87;;;;;;;17.20;53.18;98450.97;4468202;32;35140;-69
2023/10/31 02:24:54;;;;;;;8.10;4.62;;;;;;;17.33;52.85;98450.28;4467874;32;33955;-69
2023/10/31 02:27:22;;;;;;;7.95;4.28;;;;;;;17.28;52.94;98441.94;4467862;32;33842;-69
2023/10/31 02:29:50;;;;;;;9.85;4.85;;;;;;;17.37;52.72;98440.81;4454645;32;33870;-69
2023/10/31 02:32:17;;;;;;;13.52;5.75;;;;;;;16.78;54.32;98451.66;4460515;32;33390;-69
2023/10/31 02:34:45;;;;;;;8.63;5.53;;;;;;;17.04;53.67;98445.78;4468350;32;34090;-69
2023/10/31 02:37:13;;;;;;;6.72;4.37;;;;;;;17.11;53.36;98438.59;4468442;32;33949;-69
2023/10/31 02:39:40;;;;;;;7.20;4.53;;;;;;;16.71;54.78;98451.53;4465811;32;34439;-69
2023/10/31 02:42:08;;;;;;;8.98;5.78;;;;;;;16.84;54.14;98426.59;4480950;32;34492;-69
2023/10/31 02:44:36;;;;;;;10.93;4.65;;;;;;;16.74;54.51;98450.31;4480650;31;33776;-69
2023/10/31 02:47:03;;;;;;;6.35;3.92;;;;;;;16.79;54.39;98437.13;4481841;32;33776;-69
2023/10/31 02:49:31;;;;;;;12.05;6.18;;;;;;;17.02;53.93;98447.84;4478932;31;33507;-70
2023/10/31 02:51:59;;;;;;;7.07;3.78;;;;;;;17.06;53.69;98449.13;4481497;32;34140;-69
2023/10/31 02:54:26;;;;;;;8.90;5.85;;;;;;;17.12;53.31;98445.69;4481157;32;33992;-69
2023/10/31 02:56:54;;;;;;;8.98;5.10;;;;;;;17.12;53.59;98451.09;4480304;31;35014;-69
2023/10/31 02:59:22;;;;;;;7.90;4.57;;;;;;;16.92;54.13;98447.28;4481305;32;33613;-68
2023/10/31 03:01:49;;;;;;;14.45;5.03;;;;;;;17.02;53.82;98447.00;4477581;31;34325;-69
2023/10/31 03:04:17;;;;;;;8.23;4.37;;;;;;;17.11;53.61;98435.91;4479215;31;34709;-69
2023/10/31 03:06:45;;;;;;;8.95;4.75;;;;;;;17.16;53.52;98435.31;4480370;32;35207;-69
2023/10/31 03:09:12;;;;;;;7.40;4.20;;;;;;;16.93;54.15;98441.69;4479705;31;34073;-69
2023/10/31 03:11:40;;;;;;;8.50;4.93;;;;;;;16.83;54.61;98435.72;4480194;31;33607;-69
2023/10/31 03:14:07;;;;;;;13.38;4.97;;;;;;;17.11;53.71;98435.03;4468533;32;34549;-69
2023/10/31 03:16:35;;;;;;;10.48;5.50;;;;;;;17.03;53.89;98446.81;4467947;32;34087;-68
2023/10/31 03:19:03;;;;;;;8.77;5.47;;;;;;;17.21;53.33;98447.25;4468865;32;33631;-68
2023/10/31 03:21:31;;;;;;;24.63;4.75;;;;;;;17.29;53.23;98446.31;4466125;32;34521;-68
2023/10/31 03:23:58;;;;;;;11.23;6.97;;;;;;;17.03;53.97;98445.97;4468350;32;32395;-68
2023/10/31 03:26:26;;;;;;;9.00;4.70;;;;;;;16.98;54.29;98449.22;4463190;32;34895;-68
2023/10/31 03:28:57;;;;;;;16.27;9.35;;;;;;;17.08;54.31;98463.31;4458161;32;33548;-68
2023/10/31 03:31:25;;;;;;;6.62;3.62;;;;;;;16.92;54.58;98461.63;4466125;32;34286;-68
2023/10/31 03:33:53;;;;;;;7.32;4.43;;;;;;;17.16;54.29;98471.31;4468540;32;33605;-68
2023/10/31 03:36:21;;;;;;;7.30;4.45;;;;;;;17.06;54.65;98478.03;4466464;32;33852;-67
2023/10/31 03:38:48;;;;;;;9.50;4.12;;;;;;;16.84;54.21;98472.53;4466579;32;34178;-68
2023/10/31 03:41:17;;;;;;;7.32;4.40;;;;;;;16.93;54.01;98468.72;4467816;32;33486;-67
2023/10/31 03:43:45;;;;;;;7.78;4.60;;;;;;;17.11;54.04;98486.41;4468366;32;33854;-66
2023/10/31 03:46:13;;;;;;;12.05;5.00;;;;;;;17.45;53.79;98489.34;4467336;32;33742;-67
2023/10/31 03:48:41;;;;;;;4.97;3.08;;;;;;;17.52;54.14;98478.63;4468588;32;33332;-67
2023/10/31 03:51:09;;;;;;;7.40;3.78;;;;;;;17.22;53.93;98467.84;4466778;32;34210;-66
2023/10/31 03:53:36;;;;;;;6.87;3.95;;;;;;;17.24;54.75;98473.09;4458289;32;35028;-66
2023/10/31 03:56:04;;;;;;;9.60;5.12;;;;;;;17.15;55.14;98475.03;4465847;32;34984;-66
2023/10/31 03:58:32;;;;;;;14.48;9.55;;;;;;;17.14;55.51;98486.03;4467726;32;34258;-66
2023/10/31 04:01:00;;;;;;;8.65;4.93;;;;;;;17.12;55.84;98467.31;4467299;32;33663;-66
2023/10/31 04:03:27;;;;;;;7.03;3.62;;;;;;;16.41;56.96;98490.34;4465815;32;34996;-67
2023/10/31 04:05:55;;;;;;;6.05;3.80;;;;;;;16.53;57.04;98480.75;4466114;32;34029;-66
2023/10/31 04:08:23;;;;;;;8.45;5.00;;;;;;;16.54;56.58;98477.03;4468182;32;34580;-66
2023/10/31 04:10:50;;;;;;;5.50;3.75;;;;;;;16.63;57.42;98473.25;4466668;32;33177;-66
2023/10/31 04:13:18;;;;;;;10.25;5.72;;;;;;;17.03;56.42;98473.84;4465726;32;33476;-67
2023/10/31 04:15:45;;;;;;;7.20;4.20;;;;;;;16.64;57.86;98471.38;4467487;32;34165;-67
2023/10/31 04:18:14;;;;;;;9.48;5.35;;;;;;;16.88;57.48;98470.28;4457583;32;34610;-68
2023/10/31 04:20:41;;;;;;;12.40;4.43;;;;;;;16.61;58.22;98461.75;4467427;32;34172;-70
2023/10/31 04:23:10;;;;;;;7.85;4.18;;;;;;;16.90;57.59;98450.16;4466483;32;33998;-66
2023/10/31 04:25:37;;;;;;;7.60;4.68;;;;;;;16.59;58.19;98446.75;4464560;32;34920;-71
2023/10/31 04:28:05;;;;;;;7.60;3.20;;;;;;;16.75;57.88;98441.22;4466457;32;33611;-71
2023/10/31 04:30:32;;;;;;;13.88;4.95;;;;;;;16.35;59.17;98440.59;4466919;32;33479;-67
2023/10/31 04:33:00;;;;;;;9.65;4.93;;;;;;;15.91;60.56;98441.28;4466475;32;33536;-67
2023/10/31 04:35:28;;;;;;;9.93;4.15;;;;;;;16.28;59.60;98432.38;4463232;32;35078;-66
2023/10/31 04:37:56;;;;;;;8.85;5.93;;;;;;;15.93;60.10;98435.72;4465981;32;33916;-66
2023/10/31 04:40:24;;;;;;;18.37;9.80;;;;;;;16.48;58.58;98421.06;4467477;32;33362;-66
2023/10/31 04:42:52;;;;;;;15.70;9.63;;;;;;;16.21;59.22;98431.44;4461486;32;33924;-69
2023/10/31 04:45:19;;;;;;;7.45;4.35;;;;;;;16.57;58.01;98430.75;4458516;32;33996;-69
2023/10/31 04:47:47;;;;;;;6.12;4.10;;;;;;;16.37;58.58;98433.16;4466749;32;33807;-68
2023/10/31 04:50:15;;;;;;;8.13;5.03;;;;;;;16.46;58.09;98434.72;4465530;32;33290;-68
2023/10/31 04:52:42;;;;;;;6.80;4.25;;;;;;;16.82;57.31;98430.50;4462767;32;34371;-71
2023/10/31 04:55:10;;;;;;;6.78;4.12;;;;;;;16.92;56.34;98428.38;4463161;32;33678;-66
2023/10/31 04:57:38;;;;;;;9.40;3.55;;;;;;;17.10;55.34;98420.69;4462576;32;34883;-66
2023/10/31 05:00:08;;;;;;;5.97;3.85;;;;;;;16.87;55.63;98393.78;4465027;32;33190;-68
2023/10/31 05:02:36;;;;;;;7.90;4.50;;;;;;;16.94;55.71;98397.41;4461414;32;34116;-69
2023/10/31 05:05:03;;;;;;;6.72;3.97;;;;;;;16.94;55.97;98392.00;4455899;32;33849;-69
2023/10/31 05:07:32;;;;;;;11.85;4.90;;;;;;;16.90;56.45;98385.31;4459914;32;33405;-68
2023/10/31 05:10:01;;;;;;;8.73;4.45;;;;;;;16.87;56.53;98369.47;4461679;32;34245;-68
2023/10/31 05:12:28;;;;;;;7.22;3.80;;;;;;;16.66;56.91;98359.41;4454680;32;33704;-69
2023/10/31 05:14:56;;;;;;;5.90;2.97;;;;;;;16.54;56.79;98361.72;4463417;32;35053;-69
2023/10/31 05:17:23;;;;;;;7.45;4.15;;;;;;;16.59;56.63;98358.47;4457985;32;33617;-69
2023/10/31 05:19:51;;;;;;;8.57;4.50;;;;;;;16.51;56.55;98369.37;4466207;32;32851;-69
2023/10/31 05:22:18;;;;;;;7.05;3.87;;;;;;;16.40;56.65;98381.44;4461175;32;33688;-68
2023/10/31 05:24:46;;;;;;;5.22;2.85;;;;;;;16.48;56.21;98399.44;4465138;32;33740;-67
2023/10/31 05:27:14;;;;;;;8.43;3.97;;;;;;;16.24;56.23;98404.09;4464166;32;33660;-67
2023/10/31 05:29:41;;;;;;;14.70;5.05;;;;;;;16.66;55.68;98423.37;4467514;32;33200;-67
2023/10/31 05:32:09;;;;;;;9.60;4.72;;;;;;;17.02;55.18;98433.50;4464975;32;33503;-67
2023/10/31 05:34:37;;;;;;;6.60;3.75;;;;;;;17.25;54.79;98423.37;4465553;32;33477;-67
2023/10/31 05:37:06;;;;;;;15.52;4.78;;;;;;;17.27;54.63;98413.22;4466643;32;33602;-67
2023/10/31 05:39:36;;;;;;;11.88;4.75;;;;;;;17.21;55.33;98422.94;4463453;32;33806;-67
2023/10/31 05:42:04;;;;;;;7.25;3.87;;;;;;;17.23;55.45;98422.72;4465681;32;34845;-67
2023/10/31 05:44:31;;;;;;;8.45;3.90;;;;;;;17.25;55.75;98407.16;4459467;32;35026;-67
2023/10/31 05:46:59;;;;;;;7.12;3.80;;;;;;;17.36;55.33;98405.81;4453537;32;34593;-66
2023/10/31 05:49:27;;;;;;;8.38;3.12;;;;;;;17.09;54.93;98405.50;4466132;32;33423;-69
2023/10/31 05:51:54;;;;;;;5.20;3.05;;;;;;;16.98;55.31;98405.97;4456062;32;33647;-66
2023/10/31 05:54:22;;;;;;;6.68;3.35;;;;;;;16.71;54.91;98402.06;4464280;32;33099;-68
2023/10/31 05:56:49;;;;;;;11.25;5.75;;;;;;;17.18;54.04;98400.84;4464953;32;34185;-68
2023/10/31 05:59:17;;;;;;;4.10;2.65;;;;;;;16.83;54.78;98400.59;4466440;32;34624;-68
2023/10/31 06:01:45;;;;;;;4.85;2.53;;;;;;;17.02;54.34;98396.47;4458197;32;33736;-68
2023/10/31 06:04:13;;;;;;;6.57;3.85;;;;;;;17.17;53.92;98389.19;4472274;31;33527;-68
2023/10/31 06:06:40;;;;;;;6.57;3.22;;;;;;;17.30;53.86;98376.81;4473344;31;33625;-68
2023/10/31 06:09:10;;;;;;;5.78;2.62;;;;;;;17.07;53.70;98387.78;4476827;32;33294;-68
2023/10/31 06:11:42;;;;;;;4.57;2.25;;;;;;;17.10;54.27;98388.25;4467036;32;34989;-68
2023/10/31 06:14:11;;;;;;;3.97;2.15;;;;;;;17.49;52.60;98394.31;4471392;31;34966;-68
2023/10/31 06:16:42;;;;;;;5.95;3.03;;;;;;;17.61;52.35;98409.00;4466261;32;33678;-68
2023/10/31 06:19:10;;;;;;;3.45;2.33;;;;;;;17.58;52.74;98410.22;4468035;32;33080;-68
2023/10/31 06:21:37;;;;;;;11.93;7.10;;;;;;;17.55;52.49;98405.19;4467114;31;33537;-68
2023/10/31 06:24:05;;;;;;;13.95;5.97;;;;;;;17.48;53.04;98408.87;4476016;32;33071;-68
2023/10/31 06:26:33;;;;;;;9.82;6.45;;;;;;;17.26;53.23;98416.09;4472601;32;33792;-68
2023/10/31 06:29:01;;;;;;;7.78;3.42;;;;;;;17.50;53.09;98410.34;4471277;32;34494;-68
2023/10/31 06:31:48;;;;;;;7.12;3.28;;;;;;;17.75;52.95;98415.37;4470351;32;35747;-68
2023/10/31 06:34:16;;;;;;;10.85;7.15;;;;;;;17.77;53.34;98411.50;4466236;32;34035;-68
2023/10/31 06:36:44;;;;;;;14.10;8.95;;;;;;;17.55;54.44;98404.34;4465660;32;33816;-68
2023/10/31 06:39:11;;;;;;;11.25;6.68;;;;;;;17.53;54.54;98395.59;4455008;32;33622;-68
2023/10/31 06:41:40;;;;;;;11.93;6.70;;;;;;;17.57;54.07;98384.22;4462297;32;33718;-69
2023/10/31 06:44:08;;;;;;;9.70;3.22;;;;;;;17.33;54.76;98385.37;4462177;32;34176;-65
2023/10/31 06:46:36;;;;;;;5.18;3.35;;;;;;;17.39;54.36;98403.56;4465515;32;33507;-65
2023/10/31 06:49:03;;;;;;;5.40;2.97;;;;;;;17.32;55.03;98424.28;4461218;32;33144;-64
2023/10/31 06:51:31;;;;;;;5.43;2.92;;;;;;;17.62;53.73;98426.91;4461544;32;33690;-66
2023/10/31 06:53:58;;;;;;;4.15;2.35;;;;;;;17.73;53.53;98434.53;4467807;32;33897;-66
2023/10/31 06:56:28;;;;;;;7.62;2.87;;;;;;;17.72;53.37;98442.81;4464684;32;34482;-66
2023/10/31 06:58:56;;;;;;;8.98;4.57;;;;;;;17.87;52.96;98436.34;4464034;32;34335;-66
2023/10/31 07:01:24;;;;;;;7.30;3.75;;;;;;;17.79;53.15;98431.09;4460907;32;33888;-65
2023/10/31 07:03:51;;;;;;;7.20;2.65;;;;;;;17.64;53.92;98431.09;4461111;32;33801;-66
2023/10/31 07:06:19;;;;;;;8.02;3.08;;;;;;;17.12;55.15;98424.06;4463315;32;35060;-66
2023/10/31 07:08:47;;;;;;;12.93;2.67;;;;;;;17.31;54.21;98430.75;4460599;32;33978;-66
2023/10/31 07:11:14;;;;;;;3.90;1.87;;;;;;;17.64;53.70;98431.09;4462127;32;33739;-66
2023/10/31 07:13:42;;;;;;;18.17;2.83;;;;;;;17.72;53.03;98423.87;4466588;32;35287;-66
2023/10/31 07:16:10;;;;;;;5.28;2.12;;;;;;;17.74;52.82;98435.38;4458870;32;33860;-67
2023/10/31 07:18:37;;;;;;;4.82;2.90;;;;;;;17.67;52.12;98425.31;4456669;32;33246;-67
2023/10/31 07:21:05;;;;;;;4.60;2.00;;;;;;;17.95;51.62;98421.03;4468403;32;34120;-66
2023/10/31 07:23:33;;;;;;;4.10;2.35;;;;;;;17.72;51.83;98432.00;4464980;32;33911;-65
2023/10/31 07:26:03;;;;;;;4.70;2.42;;;;;;;18.14;51.16;98437.47;4464502;32;33666;-66
2023/10/31 07:28:30;;;;;;;2.30;1.45;;;;;;;18.20;50.87;98422.28;4467270;32;34595;-66
2023/10/31 07:30:59;;;;;;;2.05;1.48;;;;;;;18.39;50.33;98413.50;4461097;32;33600;-66
2023/10/31 07:33:27;;;;;;;4.20;2.22;;;;;;;18.26;50.81;98407.97;4463498;32;35274;-65
2023/10/31 07:35:54;;;;;;;4.62;2.28;;;;;;;18.21;50.29;98409.59;4461719;32;33376;-64
2023/10/31 07:38:22;;;;;;;5.97;3.15;;;;;;;18.18;50.80;98410.00;4463823;32;33552;-64
2023/10/31 07:40:50;;;;;;;3.55;2.08;;;;;;;18.24;50.74;98415.47;4466902;32;33640;-65
2023/10/31 07:43:17;;;;;;;3.85;2.35;;;;;;;18.04;50.82;98422.56;4473993;32;33848;-65
2023/10/31 07:45:45;;;;;;;3.22;2.33;;;;;;;17.87;51.29;98428.25;4461982;32;33425;-66
2023/10/31 07:48:13;;;;;;;7.82;2.85;;;;;;;17.86;50.17;98412.22;4473017;32;32850;-66
2023/10/31 07:50:40;;;;;;;3.72;1.85;;;;;;;17.52;50.86;98407.44;4474620;32;34512;-66
2023/10/31 07:53:08;;;;;;;7.70;2.35;;;;;;;18.07;49.96;98403.22;4480944;32;33644;-67
2023/10/31 07:55:36;;;;;;;4.87;1.85;;;;;;;18.13;49.75;98405.16;4470866;32;33669;-65
2023/10/31 07:58:03;;;;;;;10.00;2.55;;;;;;;18.33;49.38;98398.03;4476551;32;33036;-66
2023/10/31 08:00:32;;;;;;;3.60;1.73;;;;;;;18.65;48.43;98398.47;4465189;32;33745;-66
2023/10/31 08:03:00;;;;;;;4.22;1.95;;;;;;;18.61;48.18;98389.88;4469046;32;33680;-66
2023/10/31 08:05:28;;;;;;;5.35;1.92;;;;;;;19.09;47.16;98381.81;4478345;32;34085;-66
2023/10/31 08:07:55;;;;;;;8.60;2.17;;;;;;;18.57;47.58;98377.75;4472797;31;34352;-65
2023/10/31 08:10:23;;;;;;;4.60;1.90;;;;;;;18.47;48.34;98390.84;4468289;31;34601;-66
2023/10/31 08:12:51;;;;;;;4.18;1.87;;;;;;;18.67;48.08;98392.81;4479278;32;33768;-67
2023/10/31 08:15:18;;;;;;;5.22;2.25;;;;;;;18.74;48.23;98383.72;4469376;31;33886;-66
2023/10/31 08:17:46;;;;;;;7.22;2.47;;;;;;;18.50;48.29;98379.59;4469099;32;33893;-65
2023/10/31 08:20:14;;;;;;;3.42;1.75;;;;;;;18.47;47.99;98392.72;4462576;32;33913;-66
2023/10/31 08:22:45;;;;;;;5.75;2.17;;;;;;;18.30;48.45;98398.44;4461354;32;34058;-65
2023/10/31 08:25:13;;;;;;;2.45;1.62;;;;;;;18.02;48.89;98398.41;4458005;32;33806;-66
2023/10/31 08:27:41;;;;;;;6.40;3.37;;;;;;;18.70;47.94;98382.41;4461582;32;34283;-67
2023/10/31 08:30:09;;;;;;;7.30;3.25;;;;;;;18.13;49.40;98391.59;4459147;32;34305;-66
2023/10/31 08:32:36;;;;;;;4.35;1.87;;;;;;;18.29;49.56;98385.06;4457125;32;35040;-67
2023/10/31 08:35:04;;;;;;;3.67;2.22;;;;;;;18.76;47.81;98376.25;4460574;32;33595;-67
2023/10/31 08:37:32;;;;;;;3.80;2.53;;;;;;;18.56;47.94;98365.25;4459905;32;34131;-66
2023/10/31 08:40:03;;;;;;;3.17;1.65;;;;;;;18.76;47.83;98375.41;4459120;32;34631;-66
2023/10/31 08:42:30;;;;;;;2.53;1.17;;;;;;;18.44;47.93;98372.25;4460368;32;32962;-67
2023/10/31 08:44:58;;;;;;;2.90;1.55;;;;;;;18.57;48.00;98364.22;4458760;32;32873;-66
2023/10/31 08:47:26;;;;;;;3.10;1.77;;;;;;;18.75;47.28;98373.75;4455959;32;33335;-66
2023/10/31 08:49:53;;;;;;;3.12;1.27;;;;;;;18.37;47.56;98366.81;4455906;32;33378;-67
2023/10/31 08:52:22;;;;;;;3.65;2.33;;;;;;;18.77;47.55;98360.81;4455784;32;35359;-66
2023/10/31 08:54:50;;;;;;;3.70;1.95;;;;;;;18.99;46.94;98366.97;4458364;32;33954;-67
2023/10/31 08:57:17;;;;;;;4.43;1.67;;;;;;;19.17;46.71;98361.81;4461051;32;35739;-67
2023/10/31 08:59:45;;;;;;;2.80;1.27;;;;;;;18.72;47.09;98361.41;4458661;32;33922;-66
2023/10/31 09:02:13;;;;;;;6.32;2.90;;;;;;;18.90;46.10;98354.59;4461796;32;33742;-66
2023/10/31 09:04:40;;;;;;;6.90;2.25;;;;;;;19.31;45.75;98347.25;4458629;32;33349;-67
2023/10/31 09:07:08;;;;;;;6.37;2.17;;;;;;;19.62;45.17;98334.19;4462144;32;33712;-67
2023/10/31 09:09:35;;;;;;;3.28;1.75;;;;;;;19.54;45.51;98340.63;4457692;32;34161;-66
2023/10/31 09:12:03;;;;;;;3.33;1.65;;;;;;;19.75;44.75;98345.91;4462266;32;34890;-66
2023/10/31 09:14:31;;;;;;;5.60;2.53;;;;;;;19.36;45.42;98356.63;4458609;32;34555;-67
2023/10/31 09:16:59;;;;;;;7.75;1.87;;;;;;;19.11;45.56;98354.50;4461979;32;34720;-67
2023/10/31 09:19:26;;;;;;;7.32;2.12;;;;;;;19.45;45.14;98342.69;4453851;32;34523;-66
2023/10/31 09:21:55;;;;;;;3.60;1.50;;;;;;;19.38;44.67;98336.41;4467563;32;35006;-67
2023/10/31 09:24:23;;;;;;;3.72;1.48;;;;;;;19.71;44.36;98325.66;4457838;32;33701;-66
2023/10/31 09:26:51;;;;;;;7.55;1.85;;;;;;;18.91;45.82;98321.03;4459452;32;32822;-66
2023/10/31 09:29:19;;;;;;;8.38;2.17;;;;;;;19.38;45.06;98322.84;4464863;32;34138;-66
2023/10/31 09:31:56;;;;;;;5.30;1.65;;;;;;;19.84;43.58;98304.97;4464594;32;34866;-67
2023/10/31 09:34:24;;;;;;;1.77;1.20;;;;;;;19.22;44.58;98312.38;4468328;32;34567;-67
2023/10/31 09:36:52;;;;;;;4.15;1.27;;;;;;;19.73;44.33;98301.00;4455770;32;34549;-66
2023/10/31 09:39:20;;;;;;;4.87;1.58;;;;;;;19.69;44.17;98297.88;4463184;32;33718;-67
2023/10/31 09:41:47;;;;;;;4.82;1.55;;;;;;;19.95;44.30;98298.91;4467822;32;33928;-67
2023/10/31 09:44:18;;;;;;;5.25;1.95;;;;;;;20.12;43.74;98300.13;4460698;32;33828;-66
2023/10/31 09:46:47;;;;;;;3.15;1.90;;;;;;;19.93;44.34;98295.56;4458134;32;34056;-66
2023/10/31 09:49:15;;;;;;;4.55;1.37;;;;;;;19.04;44.99;98286.69;4459365;32;33428;-66
2023/10/31 09:51:43;;;;;;;5.70;2.17;;;;;;;19.49;44.23;98286.97;4460706;32;34214;-66
2023/10/31 09:54:13;;;;;;;9.55;2.47;;;;;;;19.47;43.96;98290.94;4459765;32;34810;-66
2023/10/31 09:56:40;;;;;;;5.30;2.53;;;;;;;19.84;43.51;98285.97;4455200;32;34129;-67
2023/10/31 09:59:08;;;;;;;4.87;2.65;;;;;;;20.15;43.30;98279.88;4467480;32;33763;-66
2023/10/31 10:01:36;;;;;;;5.30;2.42;;;;;;;19.97;43.26;98273.22;4463228;32;33954;-67
2023/10/31 10:04:05;;;;;;;8.68;1.70;;;;;;;20.29;42.07;98261.66;4463405;32;34160;-67
2023/10/31 10:06:32;;;;;;;3.62;1.30;;;;;;;20.27;42.34;98255.63;4461878;32;33094;-66
2023/10/31 10:09:03;;;;;;;6.90;2.15;;;;;;;20.30;42.79;98241.59;4460214;32;34226;-67
2023/10/31 10:11:33;;;;;;;5.87;1.90;;;;;;;20.33;43.08;98230.31;4457509;32;34404;-67
2023/10/31 10:14:02;;;;;;;7.25;1.92;;;;;;;20.22;43.01;98226.34;4463429;32;33826;-66
2023/10/31 10:16:33;;;;;;;5.72;2.35;;;;;;;20.27;42.66;98229.28;4462440;32;32987;-67
2023/10/31 10:19:21;;;;;;;4.80;2.17;;;;;;;20.44;41.99;98216.87;4459651;32;33679;-67
2023/10/31 10:21:58;;;;;;;4.47;1.77;;;;;;;20.24;42.04;98203.38;4465770;32;35231;-67
2023/10/31 10:24:26;;;;;;;5.80;2.00;;;;;;;20.29;41.56;98196.44;4465349;32;33627;-66
2023/10/31 10:26:54;;;;;;;3.33;1.70;;;;;;;20.65;41.76;98180.44;4464950;32;35258;-67
2023/10/31 10:29:21;;;;;;;4.82;1.98;;;;;;;20.54;42.14;98178.41;4467839;32;33580;-67
2023/10/31 10:31:49;;;;;;;5.53;2.00;;;;;;;20.85;41.31;98174.88;4464860;32;33756;-67
2023/10/31 10:34:17;;;;;;;3.60;1.23;;;;;;;20.56;42.24;98164.59;4465640;32;34174;-67
2023/10/31 10:36:52;;;;;;;3.72;1.80;;;;;;;20.96;41.34;98145.31;4463311;32;33706;-67
2023/10/31 10:39:22;;;;;;;;;;;;;;;20.80;42.65;98150.25;4459854;32;35002;-66
2023/10/31 10:41:58;;;;;;;2.97;1.83;;;;;;;20.91;42.15;98151.44;4459748;32;33963;-66
2023/10/31 10:44:32;;;;;;;6.55;2.05;;;;;;;20.99;41.13;98159.31;4458603;32;34676;-67
2023/10/31 10:47:05;;;;;;;3.05;1.45;;;;;;;20.87;41.11;98163.81;4458732;32;32357;-67
2023/10/31 10:49:38;;;;;;;4.80;1.75;;;;;;;20.72;42.24;98155.09;4457541;32;32990;-66
2023/10/31 10:52:21;;;;;;;2.22;1.25;;;;;;;20.54;42.24;98151.22;4459781;32;34850;-66
2023/10/31 10:55:04;;;;;;;7.12;2.08;;;;;;;20.60;41.19;98134.03;4453369;32;34935;-66
2023/10/31 10:57:58;;;;;;;12.30;1.73;;;;;;;20.82;41.25;98129.09;4459055;32;33608;-67
2023/10/31 11:00:27;;;;;;;9.07;3.17;;;;;;;20.65;41.80;98136.94;4439397;32;33332;-66
2023/10/31 11:02:56;;;;;;;3.78;1.45;;;;;;;20.90;41.55;98133.44;4440534;32;35101;-67
2023/10/31 11:05:24;;;;;;;3.40;1.95;;;;;;;20.62;40.75;98122.97;4438033;32;33529;-67
2023/10/31 11:07:55;;;;;;;2.83;1.37;;;;;;;20.84;41.10;98105.25;4437932;32;33200;-66
2023/10/31 11:10:24;;;;;;;3.78;1.70;;;;;;;20.73;40.50;98099.69;4437344;32;34961;-67
2023/10/31 11:12:52;;;;;;;1.52;1.17;;;;;;;20.61;40.61;98105.81;4437855;32;33923;-67
2023/10/31 11:15:19;;;;;;;5.18;1.77;;;;;;;20.83;40.87;98130.75;4443427;32;34502;-66
2023/10/31 11:17:48;;;;;;;17.12;2.42;;;;;;;21.06;40.95;98151.94;4439916;32;33700;-67
2023/10/31 11:20:16;;;;;;;2.97;1.50;;;;;;;21.21;40.89;98153.50;4438081;32;33687;-66
2023/10/31 11:22:45;;;;;;;3.58;2.05;;;;;;;21.05;41.68;98141.28;4433643;32;35396;-67
2023/10/31 11:25:23;;;;;;;4.55;1.90;;;;;;;21.10;42.18;98119.69;4443675;32;35139;-67
2023/10/31 11:28:20;;;;;;;5.30;1.85;;;;;;;21.23;42.07;98116.84;4437054;32;33070;-66
2023/10/31 11:30:52;;;;;;;3.75;1.98;;;;;;;21.37;42.57;98096.66;4438969;32;34619;-67
2023/10/31 11:33:21;;;;;;;15.98;7.28;;;;;;;20.69;45.05;98078.38;4437093;32;35074;-67
2023/10/31 11:35:59;;;;;;;29.12;12.70;;;;;;;20.88;45.29;98048.53;4437178;32;33457;-66
2023/10/31 11:38:33;;;;;;;16.65;6.95;;;;;;;21.29;44.74;98038.97;4452977;32;34763;-66